Aviation Digital Data Service (ADDS)

Output produced by TAFs form (0433 UTC 22 September 2017)
found at http://www.aviationweather.gov/adds/tafs/
 
METAR text: ZBTJ 220400Z 35011MPS CAVOK 27/M04 Q1010 NOSIG
Conditions at: ZBTJ (TIANJIN/ZHANGGUI, CN) observed 0400 UTC 22 September 2017
Temperature: 27.0°C (81°F)
Dewpoint: -4.0°C (25°F) [RH = 13%]
Pressure (altimeter): 29.82 inches Hg (1010.0 mb)
Winds: from the N (350 degrees) at 24 MPH (21 knots; 10.9 m/s)
Visibility: 6 or more miles (10+ km)
Ceiling: ceiling and visibility are OK
Clouds: unknown
Weather: no significant weather observed at this time

Forecast for: ZBTJ (TIANJIN/ZHANGGUI, CN)
Text: TAF ZBTJ 220302Z 2206/2306 34008MPS 5000 HZ NSC TX27/2207Z TN16/2221Z
Forecast period: 0600 to 0700 UTC 22 September 2017
Forecast type: FROM: standard forecast or significant change
Winds: from the NNW (340 degrees) at 18 MPH (16 knots; 8.3 m/s)
Visibility: 3 miles (5 km)
Clouds: not forecast
Weather: HZ  (haze)
Text: BECMG 2207/2208 20004MPS
Forecast period: 0700 UTC 22 September 2017 to 0600 UTC 23 September 2017
Forecast type: BECOMING: Conditions expected to become as follows by 0800 UTC 22 September 2017
Winds: from the SSW (200 degrees) at 9 MPH (8 knots; 4.2 m/s)
Visibility: 3 miles (5 km)
Weather: HZ  (haze)